sensor_id;sensor_type;location;lat;lon;timestamp;temperature;humidity
17007;DHT22;8620;51.168;4.154;2023-07-13T07:01:21;20.50;99.90
17007;DHT22;8620;51.168;4.154;2023-07-13T07:03:49;19.50;99.90
17007;DHT22;8620;51.168;4.154;2023-07-13T07:06:20;19.10;99.90
17007;DHT22;8620;51.168;4.154;2023-07-13T07:08:50;19.00;99.90
17007;DHT22;8620;51.168;4.154;2023-07-13T07:11:23;19.20;99.90
17007;DHT22;8620;51.168;4.154;2023-07-13T07:13:53;19.30;99.90
17007;DHT22;8620;51.168;4.154;2023-07-13T07:16:24;20.00;99.90
17007;DHT22;8620;51.168;4.154;2023-07-13T07:18:53;20.40;99.90
17007;DHT22;8620;51.168;4.154;2023-07-13T07:21:24;19.90;99.90
17007;DHT22;8620;51.168;4.154;2023-07-13T07:24:09;20.00;99.90
17007;DHT22;8620;51.168;4.154;2023-07-13T07:26:35;21.30;99.90
17007;DHT22;8620;51.168;4.154;2023-07-13T07:29:01;21.80;99.90
17007;DHT22;8620;51.168;4.154;2023-07-13T07:31:28;22.80;99.90
17007;DHT22;8620;51.168;4.154;2023-07-13T07:33:56;22.20;99.90
17007;DHT22;8620;51.168;4.154;2023-07-13T07:36:22;21.50;99.90
17007;DHT22;8620;51.168;4.154;2023-07-13T07:38:47;21.10;99.90
17007;DHT22;8620;51.168;4.154;2023-07-13T07:41:38;21.50;99.90
17007;DHT22;8620;51.168;4.154;2023-07-13T07:44:04;20.80;99.90
17007;DHT22;8620;51.168;4.154;2023-07-13T07:46:33;21.40;99.90
17007;DHT22;8620;51.168;4.154;2023-07-13T07:48:59;20.80;99.90
17007;DHT22;8620;51.168;4.154;2023-07-13T07:51:25;21.80;99.90
17007;DHT22;8620;51.168;4.154;2023-07-13T07:53:51;22.20;99.90
17007;DHT22;8620;51.168;4.154;2023-07-13T07:56:18;22.80;99.90
17007;DHT22;8620;51.168;4.154;2023-07-13T07:58:44;22.90;99.90
17007;DHT22;8620;51.168;4.154;2023-07-13T08:01:15;22.90;99.90
17007;DHT22;8620;51.168;4.154;2023-07-13T08:03:46;23.10;99.90
17007;DHT22;8620;51.168;4.154;2023-07-13T08:06:12;25.20;99.90
17007;DHT22;8620;51.168;4.154;2023-07-13T08:08:38;25.70;99.90
17007;DHT22;8620;51.168;4.154;2023-07-13T08:11:06;23.40;99.90
17007;DHT22;8620;51.168;4.154;2023-07-13T08:13:41;24.50;99.90
17007;DHT22;8620;51.168;4.154;2023-07-13T08:16:07;23.70;99.90
17007;DHT22;8620;51.168;4.154;2023-07-13T08:18:33;23.20;99.90
17007;DHT22;8620;51.168;4.154;2023-07-13T08:21:14;23.10;99.90
17007;DHT22;8620;51.168;4.154;2023-07-13T08:23:40;23.60;99.90
17007;DHT22;8620;51.168;4.154;2023-07-13T08:26:06;23.70;99.90
17007;DHT22;8620;51.168;4.154;2023-07-13T08:28:33;23.40;99.90
17007;DHT22;8620;51.168;4.154;2023-07-13T08:31:02;23.90;99.90
17007;DHT22;8620;51.168;4.154;2023-07-13T08:33:28;23.00;99.90
17007;DHT22;8620;51.168;4.154;2023-07-13T08:35:57;24.00;99.90
17007;DHT22;8620;51.168;4.154;2023-07-13T08:38:23;23.60;99.90
17007;DHT22;8620;51.168;4.154;2023-07-13T08:41:10;23.00;99.90
17007;DHT22;8620;51.168;4.154;2023-07-13T08:43:44;23.30;99.90
17007;DHT22;8620;51.168;4.154;2023-07-13T08:46:41;25.10;99.90
17007;DHT22;8620;51.168;4.154;2023-07-13T08:49:14;23.90;99.90
17007;DHT22;8620;51.168;4.154;2023-07-13T08:52:12;23.00;99.90
17007;DHT22;8620;51.168;4.154;2023-07-13T08:54:51;22.50;99.90
17007;DHT22;8620;51.168;4.154;2023-07-13T08:57:33;22.30;99.90
17007;DHT22;8620;51.168;4.154;2023-07-13T09:00:02;22.80;99.90
17007;DHT22;8620;51.168;4.154;2023-07-13T09:02:42;22.40;99.90
17007;DHT22;8620;51.168;4.154;2023-07-13T09:05:33;23.10;99.90
17007;DHT22;8620;51.168;4.154;2023-07-13T09:11:20;21.50;99.90
17007;DHT22;8620;51.168;4.154;2023-07-13T09:16:51;20.70;99.90
17007;DHT22;8620;51.168;4.154;2023-07-13T09:19:28;20.40;99.90
17007;DHT22;8620;51.168;4.154;2023-07-13T09:21:59;20.70;99.90
17007;DHT22;8620;51.168;4.154;2023-07-13T09:27:15;21.00;99.90
17007;DHT22;8620;51.168;4.154;2023-07-13T09:30:01;22.10;99.90
17007;DHT22;8620;51.168;4.154;2023-07-13T09:32:47;23.30;99.90
17007;DHT22;8620;51.168;4.154;2023-07-13T09:35:30;23.40;99.90
17007;DHT22;8620;51.168;4.154;2023-07-13T09:38:14;22.40;99.90
17007;DHT22;8620;51.168;4.154;2023-07-13T09:44:02;21.90;99.90
17007;DHT22;8620;51.168;4.154;2023-07-13T09:46:34;22.70;99.90
17007;DHT22;8620;51.168;4.154;2023-07-13T09:49:03;23.10;99.90
17007;DHT22;8620;51.168;4.154;2023-07-13T09:51:37;23.00;99.90
17007;DHT22;8620;51.168;4.154;2023-07-13T09:54:05;23.20;99.90
17007;DHT22;8620;51.168;4.154;2023-07-13T09:56:31;23.10;99.90
17007;DHT22;8620;51.168;4.154;2023-07-13T09:59:01;22.90;99.90
17007;DHT22;8620;51.168;4.154;2023-07-13T10:01:37;23.10;99.90
17007;DHT22;8620;51.168;4.154;2023-07-13T10:04:14;22.50;99.90
17007;DHT22;8620;51.168;4.154;2023-07-13T10:06:44;23.10;99.90
17007;DHT22;8620;51.168;4.154;2023-07-13T10:09:14;23.60;99.90
17007;DHT22;8620;51.168;4.154;2023-07-13T10:11:41;23.60;99.90
17007;DHT22;8620;51.168;4.154;2023-07-13T10:14:17;23.40;99.90
17007;DHT22;8620;51.168;4.154;2023-07-13T10:16:45;22.90;99.90
17007;DHT22;8620;51.168;4.154;2023-07-13T10:19:21;22.70;99.90
17007;DHT22;8620;51.168;4.154;2023-07-13T10:33:24;24.80;99.90
17007;DHT22;8620;51.168;4.154;2023-07-13T10:36:05;24.50;99.90
17007;DHT22;8620;51.168;4.154;2023-07-13T10:38:40;24.40;99.90
17007;DHT22;8620;51.168;4.154;2023-07-13T10:41:46;24.20;99.90
17007;DHT22;8620;51.168;4.154;2023-07-13T10:44:34;24.30;99.90
17007;DHT22;8620;51.168;4.154;2023-07-13T10:47:08;23.30;99.90
17007;DHT22;8620;51.168;4.154;2023-07-13T10:49:40;23.80;99.90
17007;DHT22;8620;51.168;4.154;2023-07-13T10:52:42;23.60;99.90
17007;DHT22;8620;51.168;4.154;2023-07-13T10:58:03;23.60;99.90
17007;DHT22;8620;51.168;4.154;2023-07-13T11:00:46;23.50;99.90
17007;DHT22;8620;51.168;4.154;2023-07-13T11:03:17;22.90;99.90
17007;DHT22;8620;51.168;4.154;2023-07-13T11:05:49;23.00;99.90
17007;DHT22;8620;51.168;4.154;2023-07-13T11:08:34;23.00;99.90
17007;DHT22;8620;51.168;4.154;2023-07-13T11:11:02;23.00;99.90
17007;DHT22;8620;51.168;4.154;2023-07-13T11:18:50;21.40;99.90
17007;DHT22;8620;51.168;4.154;2023-07-13T11:21:21;20.90;99.90
17007;DHT22;8620;51.168;4.154;2023-07-13T11:24:13;20.60;99.90
17007;DHT22;8620;51.168;4.154;2023-07-13T11:26:52;20.30;99.90
17007;DHT22;8620;51.168;4.154;2023-07-13T11:29:37;20.20;99.90
17007;DHT22;8620;51.168;4.154;2023-07-13T11:32:23;20.10;99.90
17007;DHT22;8620;51.168;4.154;2023-07-13T11:34:58;19.40;99.90
17007;DHT22;8620;51.168;4.154;2023-07-13T11:37:28;18.90;99.90
17007;DHT22;8620;51.168;4.154;2023-07-13T11:39:55;18.70;99.90
17007;DHT22;8620;51.168;4.154;2023-07-13T11:42:30;18.30;99.90
17007;DHT22;8620;51.168;4.154;2023-07-13T11:45:01;18.00;99.90
17007;DHT22;8620;51.168;4.154;2023-07-13T11:47:30;18.00;99.90
17007;DHT22;8620;51.168;4.154;2023-07-13T11:49:56;18.00;99.90
17007;DHT22;8620;51.168;4.154;2023-07-13T11:52:29;18.40;99.90
17007;DHT22;8620;51.168;4.154;2023-07-13T11:55:00;18.30;99.90
17007;DHT22;8620;51.168;4.154;2023-07-13T11:57:41;18.40;99.90
17007;DHT22;8620;51.168;4.154;2023-07-13T12:00:18;18.60;99.90
17007;DHT22;8620;51.168;4.154;2023-07-13T12:02:50;19.10;99.90
17007;DHT22;8620;51.168;4.154;2023-07-13T12:05:18;19.60;99.90
17007;DHT22;8620;51.168;4.154;2023-07-13T12:07:46;19.60;99.90
17007;DHT22;8620;51.168;4.154;2023-07-13T12:10:22;19.50;99.90
17007;DHT22;8620;51.168;4.154;2023-07-13T12:15:43;19.30;99.90
17007;DHT22;8620;51.168;4.154;2023-07-13T12:18:19;19.70;99.90
17007;DHT22;8620;51.168;4.154;2023-07-13T12:20:47;19.70;99.90
17007;DHT22;8620;51.168;4.154;2023-07-13T12:23:34;19.90;99.90
17007;DHT22;8620;51.168;4.154;2023-07-13T12:26:06;20.20;99.90
17007;DHT22;8620;51.168;4.154;2023-07-13T12:28:38;20.90;99.90
17007;DHT22;8620;51.168;4.154;2023-07-13T12:31:26;20.60;99.90
17007;DHT22;8620;51.168;4.154;2023-07-13T12:34:09;20.20;99.90
17007;DHT22;8620;51.168;4.154;2023-07-13T12:36:40;20.10;99.90
17007;DHT22;8620;51.168;4.154;2023-07-13T12:39:18;20.40;99.90
17007;DHT22;8620;51.168;4.154;2023-07-13T12:41:47;20.40;99.90
17007;DHT22;8620;51.168;4.154;2023-07-13T12:44:16;20.90;99.90
17007;DHT22;8620;51.168;4.154;2023-07-13T12:47:02;21.10;99.90
17007;DHT22;8620;51.168;4.154;2023-07-13T12:50:03;21.40;99.90
17007;DHT22;8620;51.168;4.154;2023-07-13T12:52:56;21.50;99.90
17007;DHT22;8620;51.168;4.154;2023-07-13T12:55:47;21.80;99.90
17007;DHT22;8620;51.168;4.154;2023-07-13T12:58:41;22.10;99.90
17007;DHT22;8620;51.168;4.154;2023-07-13T13:01:13;22.30;99.90
17007;DHT22;8620;51.168;4.154;2023-07-13T13:06:29;22.40;99.90
17007;DHT22;8620;51.168;4.154;2023-07-13T13:09:17;21.80;99.90
17007;DHT22;8620;51.168;4.154;2023-07-13T13:11:54;21.80;99.90
17007;DHT22;8620;51.168;4.154;2023-07-13T13:14:25;22.80;99.90
17007;DHT22;8620;51.168;4.154;2023-07-13T13:16:54;23.40;99.90
17007;DHT22;8620;51.168;4.154;2023-07-13T13:19:29;23.40;99.90
17007;DHT22;8620;51.168;4.154;2023-07-13T13:22:18;23.20;99.90
17007;DHT22;8620;51.168;4.154;2023-07-13T13:25:08;22.70;99.90
17007;DHT22;8620;51.168;4.154;2023-07-13T13:27:48;22.80;99.90
17007;DHT22;8620;51.168;4.154;2023-07-13T13:30:32;23.00;99.90
17007;DHT22;8620;51.168;4.154;2023-07-13T13:33:10;23.40;99.90
17007;DHT22;8620;51.168;4.154;2023-07-13T13:35:38;23.60;99.90
17007;DHT22;8620;51.168;4.154;2023-07-13T13:38:17;22.60;99.90
17007;DHT22;8620;51.168;4.154;2023-07-13T13:40:49;22.10;99.90
17007;DHT22;8620;51.168;4.154;2023-07-13T13:43:37;22.00;99.90
17007;DHT22;8620;51.168;4.154;2023-07-13T13:46:33;22.60;99.90
17007;DHT22;8620;51.168;4.154;2023-07-13T13:49:02;23.00;99.90
17007;DHT22;8620;51.168;4.154;2023-07-13T13:51:49;23.50;99.90
17007;DHT22;8620;51.168;4.154;2023-07-13T13:54:17;23.60;99.90
17007;DHT22;8620;51.168;4.154;2023-07-13T13:56:57;23.10;99.90
17007;DHT22;8620;51.168;4.154;2023-07-13T13:59:32;22.50;99.90
17007;DHT22;8620;51.168;4.154;2023-07-13T14:02:26;22.70;99.90
17007;DHT22;8620;51.168;4.154;2023-07-13T14:05:06;23.00;99.90
17007;DHT22;8620;51.168;4.154;2023-07-13T14:07:40;22.90;99.90
17007;DHT22;8620;51.168;4.154;2023-07-13T14:10:45;22.90;99.90
17007;DHT22;8620;51.168;4.154;2023-07-13T14:13:57;23.10;99.90
17007;DHT22;8620;51.168;4.154;2023-07-13T14:16:34;23.00;99.90
17007;DHT22;8620;51.168;4.154;2023-07-13T14:19:13;22.90;99.90
17007;DHT22;8620;51.168;4.154;2023-07-13T14:21:42;22.60;99.90
17007;DHT22;8620;51.168;4.154;2023-07-13T14:24:42;22.70;99.90
17007;DHT22;8620;51.168;4.154;2023-07-13T14:27:28;23.00;99.90
17007;DHT22;8620;51.168;4.154;2023-07-13T14:30:02;23.00;99.90
17007;DHT22;8620;51.168;4.154;2023-07-13T14:32:37;23.00;99.90
17007;DHT22;8620;51.168;4.154;2023-07-13T14:35:15;22.90;99.90
17007;DHT22;8620;51.168;4.154;2023-07-13T14:37:55;23.10;99.90
17007;DHT22;8620;51.168;4.154;2023-07-13T14:40:30;23.20;99.90
17007;DHT22;8620;51.168;4.154;2023-07-13T14:42:57;23.20;99.90
17007;DHT22;8620;51.168;4.154;2023-07-13T14:46:04;23.00;99.90
17007;DHT22;8620;51.168;4.154;2023-07-13T14:48:30;23.00;99.90
17007;DHT22;8620;51.168;4.154;2023-07-13T14:51:16;23.20;99.90
17007;DHT22;8620;51.168;4.154;2023-07-13T14:54:16;23.20;99.90
17007;DHT22;8620;51.168;4.154;2023-07-13T14:56:42;23.40;99.90
17007;DHT22;8620;51.168;4.154;2023-07-13T14:59:14;23.50;99.90
17007;DHT22;8620;51.168;4.154;2023-07-13T15:02:00;23.80;99.90
17007;DHT22;8620;51.168;4.154;2023-07-13T15:04:49;23.90;99.90
17007;DHT22;8620;51.168;4.154;2023-07-13T15:07:28;24.10;99.90
17007;DHT22;8620;51.168;4.154;2023-07-13T15:10:04;23.60;99.90
17007;DHT22;8620;51.168;4.154;2023-07-13T15:12:45;23.60;99.90
17007;DHT22;8620;51.168;4.154;2023-07-13T15:15:31;23.90;99.90
17007;DHT22;8620;51.168;4.154;2023-07-13T15:18:02;24.00;99.90
17007;DHT22;8620;51.168;4.154;2023-07-13T15:20:54;23.70;99.90
17007;DHT22;8620;51.168;4.154;2023-07-13T15:23:49;23.60;99.90
17007;DHT22;8620;51.168;4.154;2023-07-13T15:26:39;23.40;99.90
17007;DHT22;8620;51.168;4.154;2023-07-13T15:29:08;23.80;99.90
17007;DHT22;8620;51.168;4.154;2023-07-13T15:31:43;24.30;99.90
17007;DHT22;8620;51.168;4.154;2023-07-13T15:34:17;23.40;99.90
17007;DHT22;8620;51.168;4.154;2023-07-13T15:36:55;22.90;99.90
17007;DHT22;8620;51.168;4.154;2023-07-13T15:39:29;23.00;99.90
17007;DHT22;8620;51.168;4.154;2023-07-13T15:42:03;23.80;99.90
17007;DHT22;8620;51.168;4.154;2023-07-13T15:44:56;23.40;99.90
17007;DHT22;8620;51.168;4.154;2023-07-13T15:47:27;24.00;99.90
17007;DHT22;8620;51.168;4.154;2023-07-13T15:50:02;24.80;99.90
17007;DHT22;8620;51.168;4.154;2023-07-13T15:52:31;25.10;99.90
17007;DHT22;8620;51.168;4.154;2023-07-13T15:55:28;25.60;99.90
17007;DHT22;8620;51.168;4.154;2023-07-13T15:57:59;25.70;99.90
17007;DHT22;8620;51.168;4.154;2023-07-13T16:00:34;25.80;99.90
17007;DHT22;8620;51.168;4.154;2023-07-13T16:03:24;25.90;99.90
17007;DHT22;8620;51.168;4.154;2023-07-13T16:06:19;24.90;99.90
17007;DHT22;8620;51.168;4.154;2023-07-13T16:08:52;24.10;99.90
17007;DHT22;8620;51.168;4.154;2023-07-13T16:11:35;23.80;99.90
17007;DHT22;8620;51.168;4.154;2023-07-13T16:14:26;23.60;99.90
17007;DHT22;8620;51.168;4.154;2023-07-13T16:17:03;24.00;99.90
17007;DHT22;8620;51.168;4.154;2023-07-13T16:19:42;24.30;99.90
17007;DHT22;8620;51.168;4.154;2023-07-13T16:22:16;24.10;99.90
17007;DHT22;8620;51.168;4.154;2023-07-13T16:24:51;24.00;99.90
17007;DHT22;8620;51.168;4.154;2023-07-13T16:27:27;24.40;99.90
17007;DHT22;8620;51.168;4.154;2023-07-13T16:30:19;24.00;99.90
17007;DHT22;8620;51.168;4.154;2023-07-13T16:33:04;23.80;99.90
17007;DHT22;8620;51.168;4.154;2023-07-13T16:35:34;24.30;99.90
17007;DHT22;8620;51.168;4.154;2023-07-13T16:38:34;24.50;99.90
17007;DHT22;8620;51.168;4.154;2023-07-13T16:41:20;24.30;99.90
17007;DHT22;8620;51.168;4.154;2023-07-13T16:46:38;24.10;99.90
17007;DHT22;8620;51.168;4.154;2023-07-13T16:51:58;24.30;99.90
17007;DHT22;8620;51.168;4.154;2023-07-13T16:54:33;24.70;99.90
17007;DHT22;8620;51.168;4.154;2023-07-13T16:57:13;24.70;99.90
17007;DHT22;8620;51.168;4.154;2023-07-13T17:00:11;24.00;99.90
17007;DHT22;8620;51.168;4.154;2023-07-13T17:03:05;24.20;99.90
17007;DHT22;8620;51.168;4.154;2023-07-13T17:05:41;24.80;99.90
17007;DHT22;8620;51.168;4.154;2023-07-13T17:11:16;25.30;99.90
17007;DHT22;8620;51.168;4.154;2023-07-13T17:13:53;25.20;99.90
17007;DHT22;8620;51.168;4.154;2023-07-13T17:16:43;24.90;99.90
17007;DHT22;8620;51.168;4.154;2023-07-13T17:19:18;24.80;99.90
17007;DHT22;8620;51.168;4.154;2023-07-13T17:21:53;24.10;99.90
17007;DHT22;8620;51.168;4.154;2023-07-13T17:24:36;24.30;99.90
17007;DHT22;8620;51.168;4.154;2023-07-13T17:27:12;24.40;99.90
17007;DHT22;8620;51.168;4.154;2023-07-13T17:29:56;24.60;99.90
17007;DHT22;8620;51.168;4.154;2023-07-13T17:32:27;24.90;99.90
17007;DHT22;8620;51.168;4.154;2023-07-13T17:35:04;24.60;99.90
17007;DHT22;8620;51.168;4.154;2023-07-13T17:37:39;24.10;99.90
17007;DHT22;8620;51.168;4.154;2023-07-13T17:40:17;23.60;99.90
17007;DHT22;8620;51.168;4.154;2023-07-13T17:42:46;23.80;99.90
17007;DHT22;8620;51.168;4.154;2023-07-13T17:45:30;23.50;99.90
17007;DHT22;8620;51.168;4.154;2023-07-13T17:47:58;23.50;99.90
17007;DHT22;8620;51.168;4.154;2023-07-13T17:50:39;23.40;99.90
17007;DHT22;8620;51.168;4.154;2023-07-13T17:53:24;23.60;99.90
17007;DHT22;8620;51.168;4.154;2023-07-13T17:55:50;23.50;99.90
17007;DHT22;8620;51.168;4.154;2023-07-13T17:58:33;23.30;99.90
17007;DHT22;8620;51.168;4.154;2023-07-13T18:00:59;23.10;99.90
17007;DHT22;8620;51.168;4.154;2023-07-13T18:03:32;23.00;99.90
17007;DHT22;8620;51.168;4.154;2023-07-13T18:06:12;23.00;99.90
17007;DHT22;8620;51.168;4.154;2023-07-13T18:09:16;23.00;99.90
17007;DHT22;8620;51.168;4.154;2023-07-13T18:11:44;22.90;99.90
17007;DHT22;8620;51.168;4.154;2023-07-13T18:14:14;23.40;99.90
17007;DHT22;8620;51.168;4.154;2023-07-13T18:17:03;23.30;99.90
17007;DHT22;8620;51.168;4.154;2023-07-13T18:19:42;22.80;99.90
17007;DHT22;8620;51.168;4.154;2023-07-13T18:22:18;23.00;99.90
17007;DHT22;8620;51.168;4.154;2023-07-13T18:24:50;23.40;99.90
17007;DHT22;8620;51.168;4.154;2023-07-13T18:27:18;23.20;99.90
17007;DHT22;8620;51.168;4.154;2023-07-13T18:30:13;22.90;99.90
17007;DHT22;8620;51.168;4.154;2023-07-13T18:32:50;22.70;99.90
17007;DHT22;8620;51.168;4.154;2023-07-13T18:35:28;23.20;99.90
17007;DHT22;8620;51.168;4.154;2023-07-13T18:38:07;23.00;99.90
17007;DHT22;8620;51.168;4.154;2023-07-13T18:40:51;22.80;99.90
17007;DHT22;8620;51.168;4.154;2023-07-13T18:43:17;22.90;99.90
17007;DHT22;8620;51.168;4.154;2023-07-13T18:45:55;22.60;99.90
17007;DHT22;8620;51.168;4.154;2023-07-13T18:48:26;23.00;99.90
17007;DHT22;8620;51.168;4.154;2023-07-13T18:51:20;23.10;99.90
17007;DHT22;8620;51.168;4.154;2023-07-13T18:53:49;23.30;99.90
17007;DHT22;8620;51.168;4.154;2023-07-13T18:56:16;22.90;99.90
17007;DHT22;8620;51.168;4.154;2023-07-13T18:58:51;22.60;99.90
17007;DHT22;8620;51.168;4.154;2023-07-13T19:01:30;22.70;99.90
17007;DHT22;8620;51.168;4.154;2023-07-13T19:07:00;22.20;99.90
17007;DHT22;8620;51.168;4.154;2023-07-13T19:09:31;22.70;99.90
17007;DHT22;8620;51.168;4.154;2023-07-13T19:12:19;22.80;99.90
17007;DHT22;8620;51.168;4.154;2023-07-13T19:14:48;22.40;99.90
17007;DHT22;8620;51.168;4.154;2023-07-13T19:17:20;21.80;99.90
17007;DHT22;8620;51.168;4.154;2023-07-13T19:20:15;21.80;99.90
17007;DHT22;8620;51.168;4.154;2023-07-13T19:23:12;21.10;99.90
17007;DHT22;8620;51.168;4.154;2023-07-13T19:26:33;20.80;99.90
17007;DHT22;8620;51.168;4.154;2023-07-13T19:29:28;20.80;99.90
17007;DHT22;8620;51.168;4.154;2023-07-13T19:32:05;21.50;99.90
17007;DHT22;8620;51.168;4.154;2023-07-13T19:34:40;21.60;99.90
17007;DHT22;8620;51.168;4.154;2023-07-13T19:37:25;21.50;99.90
17007;DHT22;8620;51.168;4.154;2023-07-13T19:39:55;21.30;99.90
17007;DHT22;8620;51.168;4.154;2023-07-13T19:42:33;21.10;99.90
17007;DHT22;8620;51.168;4.154;2023-07-13T19:45:04;21.00;99.90
17007;DHT22;8620;51.168;4.154;2023-07-13T19:47:36;21.10;99.90
17007;DHT22;8620;51.168;4.154;2023-07-13T19:50:22;21.20;99.90
17007;DHT22;8620;51.168;4.154;2023-07-13T19:53:00;21.20;99.90
17007;DHT22;8620;51.168;4.154;2023-07-13T19:55:54;21.10;99.90
17007;DHT22;8620;51.168;4.154;2023-07-13T19:58:29;20.90;99.90
17007;DHT22;8620;51.168;4.154;2023-07-13T20:01:15;21.20;99.90
17007;DHT22;8620;51.168;4.154;2023-07-13T20:03:44;21.90;99.90
17007;DHT22;8620;51.168;4.154;2023-07-13T20:06:33;21.80;99.90
17007;DHT22;8620;51.168;4.154;2023-07-13T20:09:23;22.20;99.90
17007;DHT22;8620;51.168;4.154;2023-07-13T20:11:56;22.00;99.90
17007;DHT22;8620;51.168;4.154;2023-07-13T20:14:24;21.70;99.90
17007;DHT22;8620;51.168;4.154;2023-07-13T20:17:02;21.10;99.90
17007;DHT22;8620;51.168;4.154;2023-07-13T20:19:44;20.70;99.90
17007;DHT22;8620;51.168;4.154;2023-07-13T20:22:13;20.70;99.90
17007;DHT22;8620;51.168;4.154;2023-07-13T20:24:48;20.60;99.90
17007;DHT22;8620;51.168;4.154;2023-07-13T20:27:37;20.60;99.90
17007;DHT22;8620;51.168;4.154;2023-07-13T20:30:11;20.30;99.90
17007;DHT22;8620;51.168;4.154;2023-07-13T20:32:49;20.20;99.90
17007;DHT22;8620;51.168;4.154;2023-07-13T20:35:37;20.30;99.90
17007;DHT22;8620;51.168;4.154;2023-07-13T20:38:16;20.40;99.90
17007;DHT22;8620;51.168;4.154;2023-07-13T20:40:44;20.60;99.90
17007;DHT22;8620;51.168;4.154;2023-07-13T20:43:19;20.90;99.90
17007;DHT22;8620;51.168;4.154;2023-07-13T20:46:21;20.80;99.90
17007;DHT22;8620;51.168;4.154;2023-07-13T20:48:58;20.90;99.90
17007;DHT22;8620;51.168;4.154;2023-07-13T20:51:24;21.10;99.90
17007;DHT22;8620;51.168;4.154;2023-07-13T20:53:58;21.00;99.90
17007;DHT22;8620;51.168;4.154;2023-07-13T20:56:27;20.40;99.90
